sensor_id;sensor_type;location;lat;lon;timestamp;P1;durP1;ratioP1;P2;durP2;ratioP2
55589;SDS011;41452;42.780;23.116;2022-09-09T00:01:07;8.07;;;7.22;;
55589;SDS011;41452;42.780;23.116;2022-09-09T00:03:47;20.15;;;7.95;;
55589;SDS011;41452;42.780;23.116;2022-09-09T00:06:29;12.07;;;8.10;;
55589;SDS011;41452;42.780;23.116;2022-09-09T00:14:53;12.77;;;8.30;;
55589;SDS011;41452;42.780;23.116;2022-09-09T00:20:34;17.05;;;8.15;;
55589;SDS011;41452;42.780;23.116;2022-09-09T00:23:19;9.97;;;7.80;;
55589;SDS011;41452;42.780;23.116;2022-09-09T00:28:48;11.95;;;8.13;;
55589;SDS011;41452;42.780;23.116;2022-09-09T00:31:24;10.23;;;8.32;;
55589;SDS011;41452;42.780;23.116;2022-09-09T00:33:53;14.30;;;8.68;;
55589;SDS011;41452;42.780;23.116;2022-09-09T00:36:21;20.80;;;8.38;;
55589;SDS011;41452;42.780;23.116;2022-09-09T00:38:56;14.10;;;7.80;;
55589;SDS011;41452;42.780;23.116;2022-09-09T00:59:52;10.68;;;7.60;;
55589;SDS011;41452;42.780;23.116;2022-09-09T01:05:21;27.13;;;8.50;;
55589;SDS011;41452;42.780;23.116;2022-09-09T01:07:56;16.30;;;8.15;;
55589;SDS011;41452;42.780;23.116;2022-09-09T01:10:35;15.80;;;8.32;;
55589;SDS011;41452;42.780;23.116;2022-09-09T01:13:13;9.50;;;7.90;;
55589;SDS011;41452;42.780;23.116;2022-09-09T01:15:45;10.23;;;7.78;;
55589;SDS011;41452;42.780;23.116;2022-09-09T01:18:14;9.18;;;7.95;;
55589;SDS011;41452;42.780;23.116;2022-09-09T01:26:41;13.15;;;8.23;;
55589;SDS011;41452;42.780;23.116;2022-09-09T01:29:11;12.43;;;8.05;;
55589;SDS011;41452;42.780;23.116;2022-09-09T01:31:39;13.88;;;8.52;;
55589;SDS011;41452;42.780;23.116;2022-09-09T01:34:30;11.80;;;8.73;;
55589;SDS011;41452;42.780;23.116;2022-09-09T01:37:08;11.85;;;7.18;;
55589;SDS011;41452;42.780;23.116;2022-09-09T01:39:37;12.95;;;8.27;;
55589;SDS011;41452;42.780;23.116;2022-09-09T01:42:05;11.13;;;7.60;;
55589;SDS011;41452;42.780;23.116;2022-09-09T01:44:32;13.25;;;8.25;;
55589;SDS011;41452;42.780;23.116;2022-09-09T01:47:00;10.68;;;7.57;;
55589;SDS011;41452;42.780;23.116;2022-09-09T01:49:26;14.02;;;8.18;;
55589;SDS011;41452;42.780;23.116;2022-09-09T01:51:52;15.40;;;8.10;;
55589;SDS011;41452;42.780;23.116;2022-09-09T01:54:20;11.57;;;7.60;;
55589;SDS011;41452;42.780;23.116;2022-09-09T01:59:54;8.98;;;7.10;;
55589;SDS011;41452;42.780;23.116;2022-09-09T02:02:24;11.32;;;8.00;;
55589;SDS011;41452;42.780;23.116;2022-09-09T02:04:54;11.45;;;7.95;;
55589;SDS011;41452;42.780;23.116;2022-09-09T02:07:43;15.20;;;9.10;;
55589;SDS011;41452;42.780;23.116;2022-09-09T02:13:04;11.90;;;8.55;;
55589;SDS011;41452;42.780;23.116;2022-09-09T02:15:46;12.65;;;7.78;;
55589;SDS011;41452;42.780;23.116;2022-09-09T02:18:19;13.05;;;8.25;;
55589;SDS011;41452;42.780;23.116;2022-09-09T02:20:53;9.07;;;7.65;;
55589;SDS011;41452;42.780;23.116;2022-09-09T02:25:48;20.15;;;8.60;;
55589;SDS011;41452;42.780;23.116;2022-09-09T02:28:16;13.32;;;8.48;;
55589;SDS011;41452;42.780;23.116;2022-09-09T02:30:44;11.73;;;7.82;;
55589;SDS011;41452;42.780;23.116;2022-09-09T02:33:12;10.07;;;8.25;;
55589;SDS011;41452;42.780;23.116;2022-09-09T02:35:39;9.13;;;7.50;;
55589;SDS011;41452;42.780;23.116;2022-09-09T02:38:08;10.32;;;7.95;;
55589;SDS011;41452;42.780;23.116;2022-09-09T02:40:37;10.73;;;7.50;;
55589;SDS011;41452;42.780;23.116;2022-09-09T02:43:02;11.30;;;7.97;;
55589;SDS011;41452;42.780;23.116;2022-09-09T02:51:40;11.05;;;7.60;;
55589;SDS011;41452;42.780;23.116;2022-09-09T02:54:29;13.75;;;7.25;;
55589;SDS011;41452;42.780;23.116;2022-09-09T02:56:59;13.98;;;8.25;;
55589;SDS011;41452;42.780;23.116;2022-09-09T02:59:26;13.70;;;7.57;;
55589;SDS011;41452;42.780;23.116;2022-09-09T03:01:52;14.38;;;8.05;;
55589;SDS011;41452;42.780;23.116;2022-09-09T03:04:18;10.27;;;7.60;;
55589;SDS011;41452;42.780;23.116;2022-09-09T03:06:43;13.23;;;7.72;;
55589;SDS011;41452;42.780;23.116;2022-09-09T03:09:09;11.38;;;7.88;;
55589;SDS011;41452;42.780;23.116;2022-09-09T03:11:36;10.20;;;8.52;;
55589;SDS011;41452;42.780;23.116;2022-09-09T03:14:03;12.85;;;7.95;;
55589;SDS011;41452;42.780;23.116;2022-09-09T03:16:29;13.60;;;9.02;;
55589;SDS011;41452;42.780;23.116;2022-09-09T03:18:54;9.63;;;7.78;;
55589;SDS011;41452;42.780;23.116;2022-09-09T03:21:20;12.05;;;7.90;;
55589;SDS011;41452;42.780;23.116;2022-09-09T03:23:46;14.68;;;8.13;;
55589;SDS011;41452;42.780;23.116;2022-09-09T03:26:11;11.95;;;7.93;;
55589;SDS011;41452;42.780;23.116;2022-09-09T03:28:39;13.93;;;8.93;;
55589;SDS011;41452;42.780;23.116;2022-09-09T03:31:04;11.18;;;9.55;;
55589;SDS011;41452;42.780;23.116;2022-09-09T03:33:31;11.60;;;9.20;;
55589;SDS011;41452;42.780;23.116;2022-09-09T03:35:56;10.68;;;9.45;;
55589;SDS011;41452;42.780;23.116;2022-09-09T03:38:25;19.88;;;9.07;;
55589;SDS011;41452;42.780;23.116;2022-09-09T03:40:51;15.45;;;9.50;;
55589;SDS011;41452;42.780;23.116;2022-09-09T03:43:20;11.68;;;8.52;;
55589;SDS011;41452;42.780;23.116;2022-09-09T03:45:46;11.20;;;9.02;;
55589;SDS011;41452;42.780;23.116;2022-09-09T03:48:13;13.45;;;9.20;;
55589;SDS011;41452;42.780;23.116;2022-09-09T03:50:39;12.27;;;8.93;;
55589;SDS011;41452;42.780;23.116;2022-09-09T03:53:04;11.98;;;9.10;;
55589;SDS011;41452;42.780;23.116;2022-09-09T03:55:31;16.80;;;9.00;;
55589;SDS011;41452;42.780;23.116;2022-09-09T03:57:57;13.95;;;9.02;;
55589;SDS011;41452;42.780;23.116;2022-09-09T04:00:22;10.80;;;7.93;;
55589;SDS011;41452;42.780;23.116;2022-09-09T04:02:48;11.55;;;8.90;;
55589;SDS011;41452;42.780;23.116;2022-09-09T04:05:14;14.40;;;9.43;;
55589;SDS011;41452;42.780;23.116;2022-09-09T04:07:40;15.88;;;10.23;;
55589;SDS011;41452;42.780;23.116;2022-09-09T04:10:06;11.50;;;8.63;;
55589;SDS011;41452;42.780;23.116;2022-09-09T04:12:33;14.90;;;8.77;;
55589;SDS011;41452;42.780;23.116;2022-09-09T04:14:59;12.10;;;9.40;;
55589;SDS011;41452;42.780;23.116;2022-09-09T04:17:25;12.90;;;9.90;;
55589;SDS011;41452;42.780;23.116;2022-09-09T04:19:51;14.27;;;9.25;;
55589;SDS011;41452;42.780;23.116;2022-09-09T04:22:16;17.52;;;9.63;;
55589;SDS011;41452;42.780;23.116;2022-09-09T04:24:41;12.05;;;9.43;;
55589;SDS011;41452;42.780;23.116;2022-09-09T04:27:07;11.65;;;8.23;;
55589;SDS011;41452;42.780;23.116;2022-09-09T04:29:32;11.60;;;9.05;;
55589;SDS011;41452;42.780;23.116;2022-09-09T04:31:58;13.00;;;9.48;;
55589;SDS011;41452;42.780;23.116;2022-09-09T04:34:35;11.20;;;9.15;;
55589;SDS011;41452;42.780;23.116;2022-09-09T04:37:01;16.13;;;9.95;;
55589;SDS011;41452;42.780;23.116;2022-09-09T04:39:26;15.13;;;10.27;;
55589;SDS011;41452;42.780;23.116;2022-09-09T04:41:52;14.00;;;10.35;;
55589;SDS011;41452;42.780;23.116;2022-09-09T04:44:18;14.82;;;9.70;;
55589;SDS011;41452;42.780;23.116;2022-09-09T04:46:43;13.82;;;10.30;;
55589;SDS011;41452;42.780;23.116;2022-09-09T04:49:10;17.10;;;10.90;;
55589;SDS011;41452;42.780;23.116;2022-09-09T04:51:35;15.48;;;10.82;;
55589;SDS011;41452;42.780;23.116;2022-09-09T04:54:00;17.20;;;11.35;;
55589;SDS011;41452;42.780;23.116;2022-09-09T04:56:26;17.10;;;10.45;;
55589;SDS011;41452;42.780;23.116;2022-09-09T04:58:54;12.63;;;9.90;;
55589;SDS011;41452;42.780;23.116;2022-09-09T05:01:20;17.63;;;11.35;;
55589;SDS011;41452;42.780;23.116;2022-09-09T05:03:47;14.48;;;10.25;;
55589;SDS011;41452;42.780;23.116;2022-09-09T05:06:13;16.88;;;10.43;;
55589;SDS011;41452;42.780;23.116;2022-09-09T05:08:41;19.20;;;10.55;;
55589;SDS011;41452;42.780;23.116;2022-09-09T05:11:17;14.23;;;10.18;;
55589;SDS011;41452;42.780;23.116;2022-09-09T05:13:44;14.65;;;10.75;;
55589;SDS011;41452;42.780;23.116;2022-09-09T05:16:11;13.93;;;10.27;;
55589;SDS011;41452;42.780;23.116;2022-09-09T05:18:37;14.68;;;10.38;;
55589;SDS011;41452;42.780;23.116;2022-09-09T05:21:03;14.93;;;10.77;;
55589;SDS011;41452;42.780;23.116;2022-09-09T05:23:29;18.40;;;12.75;;
55589;SDS011;41452;42.780;23.116;2022-09-09T05:25:58;18.00;;;12.20;;
55589;SDS011;41452;42.780;23.116;2022-09-09T05:28:24;19.02;;;13.05;;
55589;SDS011;41452;42.780;23.116;2022-09-09T05:30:57;18.77;;;12.40;;
55589;SDS011;41452;42.780;23.116;2022-09-09T05:35:57;24.38;;;12.80;;
55589;SDS011;41452;42.780;23.116;2022-09-09T05:38:28;14.07;;;12.15;;
55589;SDS011;41452;42.780;23.116;2022-09-09T05:40:54;14.68;;;11.15;;
55589;SDS011;41452;42.780;23.116;2022-09-09T05:43:21;17.85;;;11.70;;
55589;SDS011;41452;42.780;23.116;2022-09-09T05:45:47;14.80;;;11.95;;
55589;SDS011;41452;42.780;23.116;2022-09-09T05:48:16;15.18;;;10.85;;
55589;SDS011;41452;42.780;23.116;2022-09-09T05:50:42;13.75;;;11.38;;
55589;SDS011;41452;42.780;23.116;2022-09-09T05:53:08;14.68;;;11.27;;
55589;SDS011;41452;42.780;23.116;2022-09-09T05:55:35;17.98;;;10.75;;
55589;SDS011;41452;42.780;23.116;2022-09-09T05:58:00;17.70;;;9.90;;
55589;SDS011;41452;42.780;23.116;2022-09-09T06:00:26;10.85;;;8.93;;
55589;SDS011;41452;42.780;23.116;2022-09-09T06:02:52;15.63;;;9.63;;
55589;SDS011;41452;42.780;23.116;2022-09-09T06:05:18;11.30;;;9.13;;
55589;SDS011;41452;42.780;23.116;2022-09-09T06:07:44;11.45;;;9.45;;
55589;SDS011;41452;42.780;23.116;2022-09-09T06:10:10;11.75;;;10.55;;
55589;SDS011;41452;42.780;23.116;2022-09-09T06:12:36;15.50;;;10.38;;
55589;SDS011;41452;42.780;23.116;2022-09-09T06:15:01;15.23;;;10.32;;
55589;SDS011;41452;42.780;23.116;2022-09-09T06:17:27;12.52;;;9.85;;
55589;SDS011;41452;42.780;23.116;2022-09-09T06:19:52;11.43;;;8.43;;
55589;SDS011;41452;42.780;23.116;2022-09-09T06:22:18;12.32;;;8.65;;
55589;SDS011;41452;42.780;23.116;2022-09-09T06:24:44;13.90;;;8.13;;
55589;SDS011;41452;42.780;23.116;2022-09-09T06:27:09;10.40;;;8.43;;
55589;SDS011;41452;42.780;23.116;2022-09-09T06:29:35;10.02;;;8.75;;
55589;SDS011;41452;42.780;23.116;2022-09-09T06:32:01;13.55;;;8.63;;
55589;SDS011;41452;42.780;23.116;2022-09-09T06:34:27;16.80;;;8.60;;
55589;SDS011;41452;42.780;23.116;2022-09-09T06:36:53;10.20;;;8.32;;
55589;SDS011;41452;42.780;23.116;2022-09-09T06:39:18;13.18;;;9.50;;
55589;SDS011;41452;42.780;23.116;2022-09-09T06:41:44;12.88;;;9.23;;
55589;SDS011;41452;42.780;23.116;2022-09-09T06:44:09;9.20;;;8.25;;
55589;SDS011;41452;42.780;23.116;2022-09-09T06:46:36;12.63;;;10.00;;
55589;SDS011;41452;42.780;23.116;2022-09-09T06:49:02;11.90;;;9.98;;
55589;SDS011;41452;42.780;23.116;2022-09-09T06:51:32;11.13;;;9.18;;
55589;SDS011;41452;42.780;23.116;2022-09-09T06:54:00;20.98;;;9.95;;
55589;SDS011;41452;42.780;23.116;2022-09-09T06:56:28;12.52;;;8.57;;
55589;SDS011;41452;42.780;23.116;2022-09-09T06:58:56;15.57;;;9.57;;
55589;SDS011;41452;42.780;23.116;2022-09-09T07:01:27;14.38;;;10.00;;
55589;SDS011;41452;42.780;23.116;2022-09-09T07:03:55;12.70;;;9.60;;
55589;SDS011;41452;42.780;23.116;2022-09-09T07:06:29;13.85;;;8.75;;
55589;SDS011;41452;42.780;23.116;2022-09-09T07:09:02;13.30;;;8.00;;
55589;SDS011;41452;42.780;23.116;2022-09-09T07:11:30;12.75;;;8.45;;
55589;SDS011;41452;42.780;23.116;2022-09-09T07:13:58;12.82;;;8.43;;
55589;SDS011;41452;42.780;23.116;2022-09-09T07:16:25;15.00;;;9.07;;
55589;SDS011;41452;42.780;23.116;2022-09-09T07:18:52;8.75;;;6.68;;
55589;SDS011;41452;42.780;23.116;2022-09-09T07:21:22;11.93;;;6.97;;
55589;SDS011;41452;42.780;23.116;2022-09-09T07:23:49;18.02;;;7.10;;
55589;SDS011;41452;42.780;23.116;2022-09-09T07:26:19;11.30;;;6.57;;
55589;SDS011;41452;42.780;23.116;2022-09-09T07:28:46;8.35;;;6.22;;
55589;SDS011;41452;42.780;23.116;2022-09-09T07:31:16;8.18;;;5.90;;
55589;SDS011;41452;42.780;23.116;2022-09-09T07:33:43;11.55;;;7.78;;
55589;SDS011;41452;42.780;23.116;2022-09-09T07:36:12;12.50;;;6.90;;
55589;SDS011;41452;42.780;23.116;2022-09-09T07:38:49;8.95;;;6.45;;
55589;SDS011;41452;42.780;23.116;2022-09-09T07:41:24;14.68;;;6.55;;
55589;SDS011;41452;42.780;23.116;2022-09-09T07:43:51;11.60;;;6.65;;
55589;SDS011;41452;42.780;23.116;2022-09-09T07:46:21;8.30;;;6.10;;
55589;SDS011;41452;42.780;23.116;2022-09-09T07:48:52;11.20;;;6.38;;
55589;SDS011;41452;42.780;23.116;2022-09-09T07:51:20;13.18;;;6.72;;
55589;SDS011;41452;42.780;23.116;2022-09-09T07:53:52;9.10;;;6.45;;
55589;SDS011;41452;42.780;23.116;2022-09-09T07:56:19;7.22;;;5.95;;
55589;SDS011;41452;42.780;23.116;2022-09-09T07:58:47;8.05;;;6.18;;
55589;SDS011;41452;42.780;23.116;2022-09-09T08:01:15;7.63;;;5.60;;
55589;SDS011;41452;42.780;23.116;2022-09-09T08:03:45;8.13;;;5.70;;
55589;SDS011;41452;42.780;23.116;2022-09-09T08:06:12;8.77;;;6.18;;
55589;SDS011;41452;42.780;23.116;2022-09-09T08:08:38;8.70;;;5.80;;
55589;SDS011;41452;42.780;23.116;2022-09-09T08:11:07;11.02;;;6.25;;
55589;SDS011;41452;42.780;23.116;2022-09-09T08:13:38;10.40;;;6.40;;
55589;SDS011;41452;42.780;23.116;2022-09-09T08:16:12;9.73;;;5.45;;
55589;SDS011;41452;42.780;23.116;2022-09-09T08:18:42;8.73;;;5.72;;
55589;SDS011;41452;42.780;23.116;2022-09-09T08:21:08;10.70;;;6.25;;
55589;SDS011;41452;42.780;23.116;2022-09-09T08:23:37;9.18;;;5.93;;
55589;SDS011;41452;42.780;23.116;2022-09-09T08:26:13;9.43;;;6.47;;
55589;SDS011;41452;42.780;23.116;2022-09-09T08:28:42;9.48;;;5.90;;
55589;SDS011;41452;42.780;23.116;2022-09-09T08:31:09;12.60;;;6.68;;
55589;SDS011;41452;42.780;23.116;2022-09-09T08:33:38;17.63;;;6.95;;
55589;SDS011;41452;42.780;23.116;2022-09-09T08:36:04;12.43;;;6.47;;
55589;SDS011;41452;42.780;23.116;2022-09-09T08:38:31;14.75;;;7.30;;
55589;SDS011;41452;42.780;23.116;2022-09-09T08:41:02;9.95;;;6.60;;
55589;SDS011;41452;42.780;23.116;2022-09-09T08:43:35;7.32;;;6.07;;
55589;SDS011;41452;42.780;23.116;2022-09-09T08:46:11;11.48;;;6.35;;
55589;SDS011;41452;42.780;23.116;2022-09-09T08:48:56;10.50;;;6.15;;
55589;SDS011;41452;42.780;23.116;2022-09-09T08:53:54;11.38;;;6.75;;
55589;SDS011;41452;42.780;23.116;2022-09-09T08:56:23;9.50;;;5.72;;
55589;SDS011;41452;42.780;23.116;2022-09-09T08:58:51;9.68;;;6.40;;
55589;SDS011;41452;42.780;23.116;2022-09-09T09:12:46;9.30;;;6.32;;
55589;SDS011;41452;42.780;23.116;2022-09-09T09:20:14;14.18;;;7.50;;
55589;SDS011;41452;42.780;23.116;2022-09-09T09:22:47;10.40;;;6.28;;
55589;SDS011;41452;42.780;23.116;2022-09-09T09:27:58;7.72;;;6.10;;
55589;SDS011;41452;42.780;23.116;2022-09-09T09:30:26;8.27;;;6.65;;
55589;SDS011;41452;42.780;23.116;2022-09-09T09:33:08;11.85;;;7.15;;
55589;SDS011;41452;42.780;23.116;2022-09-09T09:35:39;15.00;;;6.32;;
55589;SDS011;41452;42.780;23.116;2022-09-09T09:38:21;11.45;;;6.35;;
55589;SDS011;41452;42.780;23.116;2022-09-09T09:40:52;9.40;;;7.03;;
55589;SDS011;41452;42.780;23.116;2022-09-09T09:43:29;8.57;;;6.57;;
55589;SDS011;41452;42.780;23.116;2022-09-09T09:45:56;11.20;;;7.10;;
55589;SDS011;41452;42.780;23.116;2022-09-09T09:48:23;11.25;;;7.60;;
55589;SDS011;41452;42.780;23.116;2022-09-09T09:51:00;13.63;;;6.90;;
55589;SDS011;41452;42.780;23.116;2022-09-09T09:53:36;10.73;;;7.15;;
55589;SDS011;41452;42.780;23.116;2022-09-09T09:56:10;11.07;;;7.85;;
55589;SDS011;41452;42.780;23.116;2022-09-09T10:03:51;11.35;;;6.97;;
55589;SDS011;41452;42.780;23.116;2022-09-09T10:06:34;10.20;;;6.85;;
55589;SDS011;41452;42.780;23.116;2022-09-09T10:09:24;10.77;;;6.72;;
55589;SDS011;41452;42.780;23.116;2022-09-09T10:26:01;10.48;;;7.25;;
55589;SDS011;41452;42.780;23.116;2022-09-09T10:31:42;12.00;;;7.72;;
55589;SDS011;41452;42.780;23.116;2022-09-09T10:36:58;9.93;;;6.97;;
55589;SDS011;41452;42.780;23.116;2022-09-09T10:56:01;10.30;;;7.30;;
55589;SDS011;41452;42.780;23.116;2022-09-09T10:58:32;11.13;;;7.20;;
55589;SDS011;41452;42.780;23.116;2022-09-09T11:01:22;13.00;;;7.57;;
55589;SDS011;41452;42.780;23.116;2022-09-09T11:04:13;11.68;;;7.20;;
55589;SDS011;41452;42.780;23.116;2022-09-09T11:06:44;14.25;;;7.00;;
55589;SDS011;41452;42.780;23.116;2022-09-09T11:09:18;11.35;;;7.95;;
55589;SDS011;41452;42.780;23.116;2022-09-09T11:11:52;11.27;;;7.47;;
55589;SDS011;41452;42.780;23.116;2022-09-09T11:20:05;11.55;;;7.97;;
55589;SDS011;41452;42.780;23.116;2022-09-09T11:22:37;8.00;;;6.90;;
55589;SDS011;41452;42.780;23.116;2022-09-09T11:26:11;12.55;;;8.40;;
55589;SDS011;41452;42.780;23.116;2022-09-09T11:44:48;11.32;;;8.82;;
55589;SDS011;41452;42.780;23.116;2022-09-09T11:47:30;13.30;;;9.65;;
55589;SDS011;41452;42.780;23.116;2022-09-09T11:52:40;15.57;;;9.15;;
55589;SDS011;41452;42.780;23.116;2022-09-09T11:55:19;15.40;;;10.38;;
55589;SDS011;41452;42.780;23.116;2022-09-09T11:58:01;12.15;;;8.57;;
55589;SDS011;41452;42.780;23.116;2022-09-09T12:02:58;13.90;;;8.90;;
55589;SDS011;41452;42.780;23.116;2022-09-09T12:05:24;12.05;;;8.75;;
55589;SDS011;41452;42.780;23.116;2022-09-09T12:08:02;15.50;;;8.95;;
55589;SDS011;41452;42.780;23.116;2022-09-09T12:10:35;15.43;;;8.13;;
55589;SDS011;41452;42.780;23.116;2022-09-09T12:13:16;13.95;;;7.82;;
55589;SDS011;41452;42.780;23.116;2022-09-09T12:15:51;11.40;;;7.68;;
55589;SDS011;41452;42.780;23.116;2022-09-09T12:18:25;12.40;;;7.85;;
55589;SDS011;41452;42.780;23.116;2022-09-09T12:20:59;10.55;;;8.68;;
55589;SDS011;41452;42.780;23.116;2022-09-09T12:23:49;12.85;;;8.43;;
55589;SDS011;41452;42.780;23.116;2022-09-09T12:31:31;13.30;;;7.88;;
55589;SDS011;41452;42.780;23.116;2022-09-09T12:34:13;11.10;;;7.70;;
55589;SDS011;41452;42.780;23.116;2022-09-09T12:36:44;10.05;;;7.15;;
55589;SDS011;41452;42.780;23.116;2022-09-09T12:39:19;13.60;;;7.63;;
55589;SDS011;41452;42.780;23.116;2022-09-09T12:42:02;12.10;;;7.90;;
55589;SDS011;41452;42.780;23.116;2022-09-09T12:44:28;10.38;;;6.97;;
55589;SDS011;41452;42.780;23.116;2022-09-09T12:46:54;16.10;;;6.93;;
55589;SDS011;41452;42.780;23.116;2022-09-09T12:49:26;10.88;;;7.80;;
55589;SDS011;41452;42.780;23.116;2022-09-09T12:52:02;14.73;;;8.38;;
55589;SDS011;41452;42.780;23.116;2022-09-09T12:54:32;15.02;;;6.90;;
55589;SDS011;41452;42.780;23.116;2022-09-09T12:57:00;13.15;;;7.70;;
55589;SDS011;41452;42.780;23.116;2022-09-09T12:59:27;10.02;;;7.10;;
55589;SDS011;41452;42.780;23.116;2022-09-09T13:02:01;14.98;;;8.20;;
55589;SDS011;41452;42.780;23.116;2022-09-09T13:04:26;11.48;;;7.45;;
55589;SDS011;41452;42.780;23.116;2022-09-09T13:06:52;9.15;;;6.88;;
55589;SDS011;41452;42.780;23.116;2022-09-09T13:09:17;13.63;;;7.40;;
55589;SDS011;41452;42.780;23.116;2022-09-09T13:11:49;8.68;;;6.88;;
55589;SDS011;41452;42.780;23.116;2022-09-09T13:14:35;9.38;;;6.97;;
55589;SDS011;41452;42.780;23.116;2022-09-09T13:17:05;12.82;;;6.75;;
55589;SDS011;41452;42.780;23.116;2022-09-09T13:19:33;7.72;;;6.25;;
55589;SDS011;41452;42.780;23.116;2022-09-09T13:22:18;10.65;;;6.80;;
55589;SDS011;41452;42.780;23.116;2022-09-09T13:25:13;10.85;;;5.53;;
55589;SDS011;41452;42.780;23.116;2022-09-09T13:27:58;12.10;;;6.15;;
55589;SDS011;41452;42.780;23.116;2022-09-09T13:30:32;11.05;;;6.35;;
55589;SDS011;41452;42.780;23.116;2022-09-09T13:35:34;10.70;;;6.15;;
55589;SDS011;41452;42.780;23.116;2022-09-09T13:38:12;11.10;;;5.82;;
55589;SDS011;41452;42.780;23.116;2022-09-09T13:40:39;10.95;;;5.57;;
55589;SDS011;41452;42.780;23.116;2022-09-09T13:43:05;11.50;;;6.25;;
55589;SDS011;41452;42.780;23.116;2022-09-09T13:45:52;10.85;;;5.93;;
55589;SDS011;41452;42.780;23.116;2022-09-09T13:48:21;7.63;;;5.60;;
55589;SDS011;41452;42.780;23.116;2022-09-09T13:50:56;10.98;;;6.15;;
55589;SDS011;41452;42.780;23.116;2022-09-09T13:53:26;10.02;;;6.03;;
55589;SDS011;41452;42.780;23.116;2022-09-09T13:55:52;8.32;;;5.53;;
55589;SDS011;41452;42.780;23.116;2022-09-09T13:58:18;12.82;;;6.00;;
55589;SDS011;41452;42.780;23.116;2022-09-09T14:00:44;11.40;;;5.53;;
55589;SDS011;41452;42.780;23.116;2022-09-09T14:03:10;10.32;;;6.80;;
55589;SDS011;41452;42.780;23.116;2022-09-09T14:05:35;9.98;;;5.78;;
55589;SDS011;41452;42.780;23.116;2022-09-09T14:08:02;11.38;;;5.20;;
55589;SDS011;41452;42.780;23.116;2022-09-09T14:10:28;9.75;;;5.03;;
55589;SDS011;41452;42.780;23.116;2022-09-09T14:12:54;8.65;;;5.10;;
55589;SDS011;41452;42.780;23.116;2022-09-09T14:15:19;8.85;;;4.85;;
55589;SDS011;41452;42.780;23.116;2022-09-09T14:17:45;17.70;;;5.05;;
55589;SDS011;41452;42.780;23.116;2022-09-09T14:20:10;12.32;;;5.72;;
55589;SDS011;41452;42.780;23.116;2022-09-09T14:22:37;11.73;;;4.57;;
55589;SDS011;41452;42.780;23.116;2022-09-09T14:25:04;14.10;;;5.10;;
55589;SDS011;41452;42.780;23.116;2022-09-09T14:27:31;7.70;;;5.07;;
55589;SDS011;41452;42.780;23.116;2022-09-09T14:29:57;12.07;;;5.03;;
55589;SDS011;41452;42.780;23.116;2022-09-09T14:32:23;17.83;;;4.95;;
55589;SDS011;41452;42.780;23.116;2022-09-09T14:34:48;13.43;;;5.60;;
55589;SDS011;41452;42.780;23.116;2022-09-09T14:37:15;12.02;;;5.57;;
55589;SDS011;41452;42.780;23.116;2022-09-09T14:39:41;16.75;;;5.53;;
55589;SDS011;41452;42.780;23.116;2022-09-09T14:42:09;12.40;;;5.10;;
55589;SDS011;41452;42.780;23.116;2022-09-09T14:44:38;11.57;;;5.10;;
55589;SDS011;41452;42.780;23.116;2022-09-09T14:47:04;10.02;;;5.10;;
55589;SDS011;41452;42.780;23.116;2022-09-09T14:49:30;11.57;;;5.15;;
55589;SDS011;41452;42.780;23.116;2022-09-09T14:51:56;11.73;;;4.97;;
55589;SDS011;41452;42.780;23.116;2022-09-09T14:54:21;12.63;;;5.60;;
55589;SDS011;41452;42.780;23.116;2022-09-09T14:56:48;9.23;;;5.63;;
55589;SDS011;41452;42.780;23.116;2022-09-09T14:59:13;13.48;;;5.13;;
55589;SDS011;41452;42.780;23.116;2022-09-09T15:01:39;9.57;;;4.90;;
55589;SDS011;41452;42.780;23.116;2022-09-09T15:04:04;11.15;;;5.32;;
55589;SDS011;41452;42.780;23.116;2022-09-09T15:06:31;15.13;;;6.10;;
55589;SDS011;41452;42.780;23.116;2022-09-09T15:08:59;10.57;;;5.43;;
55589;SDS011;41452;42.780;23.116;2022-09-09T15:11:29;7.10;;;4.40;;
55589;SDS011;41452;42.780;23.116;2022-09-09T15:13:58;7.93;;;5.05;;
55589;SDS011;41452;42.780;23.116;2022-09-09T15:16:24;7.68;;;5.55;;
55589;SDS011;41452;42.780;23.116;2022-09-09T15:18:52;7.93;;;5.35;;
55589;SDS011;41452;42.780;23.116;2022-09-09T15:21:21;11.63;;;5.32;;
55589;SDS011;41452;42.780;23.116;2022-09-09T15:23:48;10.95;;;4.70;;
55589;SDS011;41452;42.780;23.116;2022-09-09T15:26:14;9.98;;;4.95;;
55589;SDS011;41452;42.780;23.116;2022-09-09T15:28:40;8.57;;;5.10;;
55589;SDS011;41452;42.780;23.116;2022-09-09T15:31:15;10.27;;;5.07;;
55589;SDS011;41452;42.780;23.116;2022-09-09T15:36:22;10.80;;;5.00;;
55589;SDS011;41452;42.780;23.116;2022-09-09T15:38:49;7.85;;;5.15;;
55589;SDS011;41452;42.780;23.116;2022-09-09T15:41:16;11.75;;;5.68;;
55589;SDS011;41452;42.780;23.116;2022-09-09T15:43:43;11.20;;;5.18;;
55589;SDS011;41452;42.780;23.116;2022-09-09T15:46:53;14.02;;;5.07;;
55589;SDS011;41452;42.780;23.116;2022-09-09T15:49:14;12.45;;;5.07;;
55589;SDS011;41452;42.780;23.116;2022-09-09T15:51:43;8.43;;;4.85;;
55589;SDS011;41452;42.780;23.116;2022-09-09T15:54:11;12.35;;;5.32;;
55589;SDS011;41452;42.780;23.116;2022-09-09T15:56:43;13.00;;;4.75;;
55589;SDS011;41452;42.780;23.116;2022-09-09T15:59:10;9.27;;;5.47;;
55589;SDS011;41452;42.780;23.116;2022-09-09T16:01:36;10.32;;;5.03;;
55589;SDS011;41452;42.780;23.116;2022-09-09T16:04:04;11.23;;;5.13;;
55589;SDS011;41452;42.780;23.116;2022-09-09T16:06:30;11.98;;;5.05;;
55589;SDS011;41452;42.780;23.116;2022-09-09T16:08:56;14.18;;;5.10;;
55589;SDS011;41452;42.780;23.116;2022-09-09T16:11:33;14.23;;;4.53;;
55589;SDS011;41452;42.780;23.116;2022-09-09T16:14:00;12.43;;;4.55;;
55589;SDS011;41452;42.780;23.116;2022-09-09T16:16:27;16.95;;;4.65;;
55589;SDS011;41452;42.780;23.116;2022-09-09T16:18:55;9.32;;;4.75;;
55589;SDS011;41452;42.780;23.116;2022-09-09T16:21:39;9.00;;;4.90;;
55589;SDS011;41452;42.780;23.116;2022-09-09T16:24:07;13.03;;;5.20;;
55589;SDS011;41452;42.780;23.116;2022-09-09T16:26:35;9.80;;;4.70;;
55589;SDS011;41452;42.780;23.116;2022-09-09T16:29:02;14.68;;;5.13;;
55589;SDS011;41452;42.780;23.116;2022-09-09T16:31:28;20.75;;;5.22;;
55589;SDS011;41452;42.780;23.116;2022-09-09T16:33:55;19.15;;;5.85;;
55589;SDS011;41452;42.780;23.116;2022-09-09T16:36:30;18.33;;;5.93;;
55589;SDS011;41452;42.780;23.116;2022-09-09T16:38:59;12.77;;;4.80;;
55589;SDS011;41452;42.780;23.116;2022-09-09T16:41:27;16.58;;;5.55;;
55589;SDS011;41452;42.780;23.116;2022-09-09T16:43:53;14.20;;;5.13;;
55589;SDS011;41452;42.780;23.116;2022-09-09T16:46:20;23.45;;;5.75;;
55589;SDS011;41452;42.780;23.116;2022-09-09T16:48:47;16.73;;;5.70;;
55589;SDS011;41452;42.780;23.116;2022-09-09T16:51:14;21.02;;;6.43;;
55589;SDS011;41452;42.780;23.116;2022-09-09T16:53:43;19.77;;;5.40;;
55589;SDS011;41452;42.780;23.116;2022-09-09T16:56:10;11.15;;;5.20;;
55589;SDS011;41452;42.780;23.116;2022-09-09T16:58:42;7.60;;;5.15;;
55589;SDS011;41452;42.780;23.116;2022-09-09T17:01:08;11.13;;;4.90;;
55589;SDS011;41452;42.780;23.116;2022-09-09T17:03:35;10.15;;;5.10;;
55589;SDS011;41452;42.780;23.116;2022-09-09T17:06:02;13.75;;;5.78;;
55589;SDS011;41452;42.780;23.116;2022-09-09T17:08:31;10.45;;;5.03;;
55589;SDS011;41452;42.780;23.116;2022-09-09T17:10:58;13.93;;;5.57;;
55589;SDS011;41452;42.780;23.116;2022-09-09T17:13:24;10.73;;;5.10;;
55589;SDS011;41452;42.780;23.116;2022-09-09T17:15:50;9.55;;;5.10;;